Weather observations for the past three days for
Moose Lake Carlton County Airport
Imperial (Metric)
Date Time (cdt) Wind (mph) Vis. (mi.) Weather Sky Cond. Temperature (ºF) Relative Humidity Wind Chill (°F) Heat Index (°F) Pressure Precipitation (in)
Air Dwpt 6 hour altimeter (in) sea level (mb) 1 hr 3 hr 6 hr
Max. Min.
09 09:35 N 16 G 23 10.00 Fair CLR 51.8 24.8 35% 29.71 0.0
09 09:15 N 14 G 24 10.00 Fair CLR 50 23 35% 45 29.7 0.0
09 08:55 N 10 G 21 10.00 Fair CLR 50 24.8 37% 46 29.7 0.0
09 08:35 N 12 G 21 10.00 Fair CLR 48.2 24.8 40% 44 29.69 0.0
09 08:15 N 10 G 20 10.00 Partly Cloudy SCT095 46.4 26.6 46% 42 29.69 0.0
09 07:55 N 12 G 20 10.00 Overcast OVC095 46.4 26.6 46% 42 29.68 0.0
09 07:35 N 10 G 18 10.00 Overcast OVC095 46.4 28.4 50% 42 29.67 0.0
09 07:15 N 10 G 16 10.00 Overcast OVC095 46.4 33.8 62% 42 29.66 0.0
09 06:55 NW 6 10.00 Overcast OVC085 46.4 35.6 66% 44 29.65 0.0
09 06:35 NW 7 10.00 Overcast SCT065 OVC075 44.6 35.6 71% 41 29.64 0.0
09 06:15 NW 3 10.00 Overcast SCT050 OVC065 44.6 35.6 71% 29.63 0.0
09 05:55 W 3 10.00 Overcast SCT039 OVC050 44.6 35.6 71% 29.62 0.0
09 05:35 W 5 10.00 Light Drizzle BKN039 OVC046 46.4 35.6 66% 45 29.62 0.0
09 05:15 NW 5 10.00 Light Rain OVC046 46.4 35.6 66% 45 29.62 0.0
09 04:55 N 6 10.00 Light Rain OVC046 46.4 33.8 62% 44 29.62 0.0
09 04:35 NW 6 10.00 Overcast OVC048 46.4 33.8 62% 44 29.61 0.0
09 04:15 N 7 10.00 Light Drizzle OVC048 48.2 32 54% 46 29.61 0.0
09 03:55 NW 6 10.00 Overcast OVC050 50 32 50% 48 29.6 0.0
09 03:35 NW 5 10.00 Overcast BKN055 OVC070 50 32 50% 49 29.6 0.0
09 03:15 NW 3 10.00 Overcast BKN075 OVC090 50 32 50% 29.59 0.0
09 02:55 NW 5 10.00 Overcast SCT070 OVC090 50 30.2 47% 49 29.59 0.0
09 02:35 N 8 10.00 Overcast BKN070 OVC090 51.8 30.2 44% 29.6 0.0
09 02:15 W 7 10.00 Overcast SCT049 BKN070 OVC080 51.8 30.2 44% 29.6 0.0
09 01:55 NW 6 10.00 Overcast SCT070 SCT075 OVC085 53.6 30.2 41% 29.61 0.0
09 01:35 NW 7 10.00 Light Drizzle SCT046 BKN075 OVC085 51.8 30.2 44% 29.61 0.0
09 01:15 NW 6 10.00 Overcast BKN075 OVC085 51.8 30.2 44% 29.61 0.0
09 00:55 NW 9 10.00 Overcast SCT060 BKN075 OVC085 48.2 28.4 46% 45 29.6 0.0
09 00:35 Calm 10.00 Mostly Cloudy BKN090 46.4 28.4 50% 29.59 0.0
09 00:15 Calm 10.00 Fair CLR 46.4 26.6 46% 29.58 0.0
08 23:55 Calm 10.00 Fair CLR 46.4 26.6 46% 29.58 0.0
08 23:35 Calm 10.00 Fair CLR 50 26.6 40% 29.58 0.0
08 23:15 W 3 10.00 Fair CLR 50 26.6 40% 29.59 0.0
08 22:55 Calm 10.00 Fair CLR 51.8 26.6 38% 29.59 0.0
08 22:35 Calm 10.00 Fair CLR 53.6 26.6 35% 29.59 0.0
08 22:15 NW 5 10.00 Fair CLR 53.6 26.6 35% 29.6 0.0
08 21:55 NW 5 10.00 Fair CLR 55.4 28.4 36% 29.59 0.0
08 21:35 NW 7 G 16 10.00 Fair CLR 57.2 28.4 33% 29.59 0.0
08 21:15 NW 13 G 17 10.00 Fair CLR 57.2 28.4 33% 29.58 0.0
08 20:55 NW 7 10.00 Fair CLR 59 28.4 31% 29.57 0.0
08 20:35 NW 10 G 16 10.00 Fair CLR 59 28.4 31% 29.56 0.0
08 20:15 NW 9 G 16 10.00 Partly Cloudy SCT090 60.8 30.2 31% 29.55 0.0
08 19:55 NW 10 G 16 10.00 Mostly Cloudy BKN100 62.6 30.2 30% 29.55 0.0
08 19:35 NW 10 G 17 10.00 Overcast OVC110 64.4 30.2 28% 29.54 0.0
08 19:15 W 12 G 17 10.00 Overcast OVC110 64.4 30.2 28% 29.54 0.0
08 18:55 W 5 10.00 Overcast OVC110 64.4 30.2 28% 29.54 0.0
08 18:35 W 9 10.00 Overcast OVC110 64.4 30.2 28% 29.54 0.0
08 18:15 W 12 G 20 10.00 Overcast OVC110 64.4 30.2 28% 29.55 0.0
08 17:55 W 12 G 21 10.00 Overcast OVC110 64.4 30.2 28% 29.55 0.0
08 17:35 W 9 10.00 Overcast OVC110 66.2 30.2 26% 29.56 0.0
08 17:15 W 8 10.00 Overcast OVC110 68 30.2 24% 29.56 0.0
08 16:55 SW 10 G 18 10.00 Overcast OVC110 64.4 28.4 26% 29.56 0.0
08 16:35 W 12 G 17 10.00 Mostly Cloudy BKN110 66.2 30.2 26% 29.57 0.0
08 16:15 NW 8 G 16 10.00 Mostly Cloudy BKN100 66.2 30.2 26% 29.57 0.0
08 15:55 SW 13 G 20 10.00 Mostly Cloudy BKN100 68 30.2 24% 29.58 0.0
08 15:35 W 9 G 18 10.00 Overcast OVC100 66.2 30.2 26% 29.6 0.0
08 15:15 W 14 G 20 10.00 Mostly Cloudy BKN100 66.2 30.2 26% 29.6 0.0
08 14:55 NW 10 G 17 10.00 Mostly Cloudy BKN100 66.2 30.2 26% 29.61 0.0
08 14:35 SW 9 10.00 Partly Cloudy SCT100 64.4 30.2 28% 29.61 0.0
08 14:15 NW 7 10.00 Mostly Cloudy SCT100 BKN120 64.4 30.2 28% 29.62 0.0
08 13:55 W 5 10.00 Mostly Cloudy BKN100 BKN120 64.4 30.2 28% 29.63 0.0
08 13:35 NW 7 G 17 10.00 Overcast OVC100 64.4 28.4 26% 29.64 0.0
08 13:15 W 6 10.00 Mostly Cloudy BKN090 BKN120 62.6 26.6 25% 29.64 0.0
08 12:55 W 7 10.00 Partly Cloudy SCT120 62.6 28.4 27% 29.65 0.0
08 12:35 W 3 10.00 Fair CLR 62.6 28.4 27% 29.67 0.0
08 12:15 W 3 10.00 Partly Cloudy SCT110 62.6 28.4 27% 29.68 0.0
08 11:55 W 5 10.00 Mostly Cloudy BKN110 60.8 26.6 27% 29.69 0.0
08 11:35 SE 3 10.00 Fair CLR 60.8 26.6 27% 29.69 0.0
08 11:15 Calm 10.00 Fair CLR 59 26.6 29% 29.7 0.0
08 10:55 Calm 10.00 Fair CLR 55.4 26.6 33% 29.7 0.0
08 10:35 Calm 10.00 Partly Cloudy SCT095 57.2 26.6 31% 29.71 0.0
08 10:15 Calm 10.00 Mostly Cloudy SCT095 BKN110 55.4 28.4 36% 29.72 0.0
08 09:55 SW 5 10.00 Overcast OVC110 53.6 26.6 35% 29.72 0.0
08 09:35 SW 3 10.00 Overcast OVC100 53.6 26.6 35% 29.73 0.0
08 09:15 SW 7 10.00 Overcast OVC100 51.8 28.4 41% 29.74 0.0
08 08:55 SW 5 10.00 Mostly Cloudy BKN100 50 28.4 43% 49 29.74 0.0
08 08:35 SW 3 10.00 Fair CLR 46.4 28.4 50% 29.74 0.0
08 08:15 Calm 10.00 Fair CLR 42.8 26.6 53% 29.76 0.0
08 07:55 SW 3 10.00 Mostly Cloudy BKN110 37.4 26.6 65% 29.76 0.0
08 07:35 Calm 10.00 Mostly Cloudy BKN110 35.6 28.4 75% 29.76 0.0
08 07:15 SW 3 10.00 Partly Cloudy SCT120 32 26.6 80% 29.76 0.0
08 06:55 Calm 10.00 Fair CLR 32 26.6 80% 29.76 0.0
08 06:35 Calm 10.00 Fair CLR 30.2 24.8 80% 29.75 0.0
08 06:15 SW 3 10.00 Fair CLR 28.4 24.8 86% 29.75 0.0
08 05:55 Calm 10.00 Fair CLR 28.4 23 80% 29.75 0.0
08 05:35 Calm 10.00 Fair CLR 28.4 24.8 86% 29.75 0.0
08 05:15 SW 3 10.00 Fair CLR 28.4 23 80% 29.75 0.0
08 04:55 Calm 10.00 Fair CLR 28.4 23 80% 29.76 0.0
08 04:35 Calm 10.00 Fair CLR 28.4 24.8 86% 29.76 0.0
08 04:15 Calm 10.00 Fair CLR 30.2 26.6 86% 29.76 0.0
08 03:55 Calm 10.00 Fair CLR 30.2 26.6 86% 29.77 0.0
08 03:35 Calm 10.00 Fair CLR 30.2 26.6 86% 29.77 0.0
08 03:15 Calm 10.00 Fair CLR 30.2 26.6 86% 29.78 0.0
08 02:55 Calm 10.00 Fair CLR 30.2 26.6 86% 29.78 0.0
08 02:35 Calm 10.00 Fair CLR 30.2 26.6 86% 29.78 0.0
08 02:15 Calm 10.00 Fair CLR 32 26.6 80% 29.78 0.0
08 01:55 Calm 10.00 Fair CLR 32 26.6 80% 29.78 0.0
08 01:35 Calm 10.00 Fair CLR 32 26.6 80% 29.79 0.0
08 01:15 Calm 10.00 Fair CLR 32 26.6 80% 29.79 0.0
08 00:55 Calm 10.00 Fair CLR 32 26.6 80% 29.79 0.0
08 00:35 Calm 10.00 Fair CLR 32 26.6 80% 29.79 0.0
08 00:15 Calm 10.00 Fair CLR 33.8 28.4 81% 29.8 0.0
07 23:55 Calm 10.00 Fair CLR 33.8 28.4 81% 29.8 0.0
07 23:35 Calm 10.00 Fair CLR 33.8 28.4 81% 29.8 0.0
07 23:15 Calm 10.00 Fair CLR 35.6 28.4 75% 29.8 0.0
07 22:55 Calm 10.00 Fair CLR 35.6 26.6 70% 29.8 0.0
07 22:35 Calm 10.00 Fair CLR 37.4 23 56% 29.8 0.0
07 22:15 Calm 10.00 Fair CLR 39.2 21.2 48% 29.79 0.0
07 21:55 Calm 10.00 Fair CLR 41 21.2 45% 29.79 0.0
07 21:35 Calm 10.00 Fair CLR 42.8 21.2 42% 29.79 0.0
07 21:15 Calm 10.00 Fair CLR 44.6 21.2 39% 29.79 0.0
07 20:55 Calm 10.00 Partly Cloudy SCT090 46.4 21.2 37% 29.78 0.0
07 20:35 Calm 10.00 Mostly Cloudy BKN090 50 23 35% 29.77 0.0
07 20:15 NW 3 10.00 Overcast OVC090 51.8 23 32% 29.77 0.0
07 19:55 W 5 10.00 Overcast OVC090 53.6 23 30% 29.77 0.0
07 19:35 W 6 10.00 Overcast OVC090 53.6 23 30% 29.77 0.0
07 19:15 W 6 10.00 Overcast OVC090 53.6 23 30% 29.77 0.0
07 18:55 W 6 10.00 Overcast OVC100 55.4 23 28% 29.77 0.0
07 18:35 W 6 10.00 Overcast OVC100 55.4 24.8 31% 29.77 0.0
07 18:15 W 5 10.00 Overcast OVC100 53.6 24.8 33% 29.77 0.0
07 17:55 NW 12 10.00 Overcast SCT080 OVC100 57.2 26.6 31% 29.78 0.0
07 17:35 NW 8 10.00 Overcast SCT080 OVC100 55.4 26.6 33% 29.77 0.0
07 17:15 W 10 G 20 10.00 Overcast SCT080 OVC100 55.4 26.6 33% 29.78 0.0
07 16:55 W 9 10.00 Overcast BKN080 OVC100 55.4 26.6 33% 29.78 0.0
07 16:35 W 10 G 17 10.00 Overcast OVC095 55.4 26.6 33% 29.79 0.0
07 16:15 W 10 G 16 10.00 Overcast SCT070 OVC095 55.4 28.4 36% 29.79 0.0
07 15:55 W 8 G 18 10.00 Overcast BKN070 OVC085 53.6 24.8 33% 29.79 0.0
07 15:35 W 6 G 16 10.00 Overcast BKN070 OVC080 51.8 26.6 38% 29.8 0.0
07 15:15 W 10 G 17 10.00 Overcast SCT060 BKN070 OVC080 53.6 26.6 35% 29.8 0.0
07 14:55 W 12 G 20 10.00 Overcast BKN070 OVC085 51.8 26.6 38% 29.8 0.0
07 14:35 W 10 G 16 10.00 Overcast SCT070 OVC080 53.6 26.6 35% 29.81 0.0
07 14:15 W 9 G 16 10.00 Overcast SCT050 BKN070 OVC080 53.6 26.6 35% 29.81 0.0
07 13:55 W 8 G 18 10.00 Overcast SCT060 BKN070 OVC090 51.8 24.8 35% 29.81 0.0
07 13:35 W 12 G 20 10.00 Overcast SCT070 OVC080 53.6 24.8 33% 29.82 0.0
07 13:15 NW 8 10.00 Overcast SCT070 OVC080 51.8 24.8 35% 29.82 0.0
07 12:55 SW 13 G 20 10.00 Overcast SCT070 OVC080 51.8 24.8 35% 29.82 0.0
07 12:35 SW 9 10.00 Overcast BKN070 OVC080 51.8 24.8 35% 29.84 0.0
07 12:15 W 5 10.00 Overcast SCT060 OVC080 50 24.8 37% 49 29.84 0.0
07 11:55 W 9 10.00 Overcast SCT050 BKN060 OVC075 50 24.8 37% 47 29.85 0.0
07 11:35 W 6 10.00 Overcast BKN060 BKN070 OVC080 50 23 35% 48 29.86 0.0
07 11:15 W 5 10.00 Overcast SCT060 SCT075 OVC090 50 26.6 40% 49 29.86 0.0
07 10:55 W 5 10.00 Overcast BKN060 BKN070 OVC090 48.2 23 37% 47 29.87 0.0
07 10:35 W 8 G 16 10.00 Overcast BKN060 OVC080 46.4 23 40% 43 29.87 0.0
07 10:15 W 7 10.00 Overcast SCT050 SCT065 OVC080 48.2 23 37% 46 29.87 0.0
07 09:55 W 6 10.00 Overcast SCT055 SCT065 OVC080 48.2 26.6 43% 46 29.87 0.0
07 09:35 W 6 10.00 Overcast SCT065 SCT070 OVC080 48.2 26.6 43% 46 29.87 0.0
07 09:15 W 7 10.00 Mostly Cloudy SCT065 BKN075 46.4 26.6 46% 43 29.88 0.0
07 08:55 W 9 10.00 Partly Cloudy SCT075 44.6 26.6 49% 40 29.88 0.0
07 08:35 W 7 10.00 Fair CLR 44.6 26.6 49% 41 29.88 0.0
07 08:15 W 6 10.00 Partly Cloudy SCT070 42.8 26.6 53% 40 29.89 0.0
07 07:55 W 5 10.00 Mostly Cloudy BKN070 41 28.4 61% 38 29.89 0.0
07 07:35 W 3 10.00 Partly Cloudy SCT070 37.4 28.4 70% 29.89 0.0
07 07:15 SW 3 10.00 Fair CLR 35.6 28.4 75% 29.89 0.0
07 06:55 SW 3 10.00 Fair CLR 33.8 26.6 75% 29.89 0.0
07 06:35 SW 3 10.00 Fair CLR 32 26.6 80% 29.89 0.0
07 06:15 SW 3 10.00 Fair CLR 32 26.6 80% 29.89 0.0
07 05:55 SW 3 10.00 Fair CLR 32 26.6 80% 29.89 0.0
07 05:35 SW 3 10.00 Fair CLR 32 26.6 80% 29.89 0.0
07 05:15 SW 3 10.00 Fair CLR 32 26.6 80% 29.89 0.0
07 04:55 W 3 10.00 Fair CLR 32 26.6 80% 29.89 0.0
07 04:35 SW 3 10.00 Fair CLR 32 26.6 80% 29.89 0.0
07 04:15 Calm 10.00 Fair CLR 32 26.6 80% 29.89 0.0
07 03:55 Calm 10.00 Fair CLR 33.8 26.6 75% 29.89 0.0
07 03:35 Calm 10.00 Partly Cloudy SCT080 35.6 26.6 70% 29.89 0.0
07 03:15 Calm 10.00 Overcast OVC080 35.6 26.6 70% 29.89 0.0
07 02:55 SW 3 10.00 Overcast OVC070 37.4 26.6 65% 29.89 0.0
07 02:35 Calm 10.00 Overcast SCT060 OVC070 37.4 26.6 65% 29.89 0.0
07 02:15 SW 3 10.00 Overcast BKN060 OVC070 37.4 26.6 65% 29.89 0.0
07 01:55 Calm 10.00 Overcast BKN060 OVC070 37.4 26.6 65% 29.9 0.0
07 01:35 W 3 10.00 Overcast OVC070 37.4 26.6 65% 29.91 0.0
07 01:15 SW 3 10.00 Overcast OVC070 37.4 26.6 65% 29.91 0.0
07 00:55 W 3 10.00 Overcast OVC070 37.4 26.6 65% 29.92 0.0
07 00:35 Calm 10.00 Overcast OVC070 37.4 26.6 65% 29.92 0.0
07 00:15 Calm 10.00 Overcast OVC070 37.4 26.6 65% 29.92 0.0
06 23:55 Calm 10.00 Overcast OVC060 37.4 26.6 65% 29.93 0.0
06 23:35 Calm 10.00 Overcast OVC060 37.4 26.6 65% 29.93 0.0
06 23:15 S 6 10.00 Overcast OVC060 37.4 26.6 65% 33 29.93 0.0
06 22:55 Calm 10.00 Overcast OVC060 39.2 26.6 61% 29.94 0.0
06 22:35 Calm 10.00 Overcast OVC060 39.2 26.6 61% 29.94 0.0
06 22:15 Calm 10.00 Overcast OVC060 41 26.6 57% 29.94 0.0
06 21:55 Calm 10.00 Overcast OVC060 41 26.6 57% 29.95 0.0
06 21:35 Calm 10.00 Overcast OVC060 41 26.6 57% 29.94 0.0
06 21:15 Calm 10.00 Overcast OVC060 41 26.6 57% 29.94 0.0
06 20:55 Calm 10.00 Overcast OVC050 41 26.6 57% 29.94 0.0
06 20:35 Calm 10.00 Overcast OVC050 41 26.6 57% 29.94 0.0
06 20:15 Calm 10.00 Overcast OVC050 41 26.6 57% 29.94 0.0
06 19:55 NW 5 10.00 Overcast OVC050 42.8 26.6 53% 41 29.94 0.0
06 19:35 NW 6 10.00 Overcast BKN048 OVC055 42.8 24.8 49% 40 29.94 0.0
06 19:15 W 7 10.00 Overcast OVC050 42.8 24.8 49% 39 29.94 0.0
06 18:55 W 5 10.00 Overcast OVC048 42.8 24.8 49% 41 29.94 0.0
06 18:35 W 6 10.00 Overcast OVC048 42.8 24.8 49% 40 29.94 0.0
06 18:15 W 7 10.00 Overcast OVC050 42.8 23 46% 39 29.95 0.0
06 17:55 W 9 10.00 Overcast OVC050 42.8 24.8 49% 38 29.95 0.0
06 17:15 W 8 G 16 10.00 Overcast OVC050 44.6 24.8 46% 41 29.95 0.0
06 16:55 W 7 10.00 Overcast OVC050 42.8 23 46% 39 29.95 0.0
06 16:35 W 5 10.00 Overcast OVC050 42.8 23 46% 41 29.95 0.0
06 16:15 W 7 10.00 Overcast OVC050 44.6 23 43% 41 29.95 0.0
06 15:55 SW 6 10.00 Overcast OVC050 44.6 23 43% 42 29.95 0.0
06 15:35 W 7 10.00 Overcast OVC050 44.6 23 43% 41 29.95 0.0
06 15:15 NW 8 10.00 Overcast OVC050 44.6 23 43% 41 29.96 0.0
06 14:55 W 8 10.00 Overcast OVC050 44.6 23 43% 41 29.96 0.0
06 14:35 W 6 10.00 Overcast OVC048 44.6 24.8 46% 42 29.96 0.0
06 14:15 W 7 10.00 Overcast OVC046 42.8 24.8 49% 39 29.96 0.0
06 13:55 NW 7 10.00 Overcast OVC044 42.8 24.8 49% 39 29.96 0.0
06 13:35 W 9 10.00 Overcast OVC044 42.8 24.8 49% 38 29.96 0.0
06 13:15 W 6 G 16 10.00 Overcast OVC044 42.8 24.8 49% 40 29.96 0.0
06 12:55 NW 7 10.00 Overcast BKN042 OVC048 42.8 24.8 49% 39 29.97 0.0
06 12:35 W 13 G 17 10.00 Overcast OVC042 41 24.8 53% 34 29.97 0.0
06 12:15 W 8 10.00 Overcast OVC044 42.8 23 46% 39 29.97 0.0
06 11:55 W 7 G 17 10.00 Overcast OVC044 41 23 49% 37 29.98 0.0
06 11:35 W 9 10.00 Overcast BKN042 OVC055 42.8 23 46% 38 29.98 0.0
06 11:15 NW 9 10.00 Overcast OVC042 41 23 49% 36 29.98 0.0
06 10:55 W 7 10.00 Overcast OVC042 41 23 49% 37 29.98 0.0
06 10:35 NW 8 G 16 10.00 Overcast OVC042 39.2 23 52% 34 29.98 0.0
06 10:15 W 6 10.00 Overcast OVC040 39.2 23 52% 36 29.98 0.0
Date Time (cdt) Wind (mph) Vis. (mi.) Weather Sky Cond. Air Dwpt Max. Min. Relative Humidity Wind Chill (°F) Heat Index (°F) altimeter (in) sea level (mb) 1 hr 3 hr 6 hr
6 hour
Temperature (ºF) Pressure Precipitation (in)